createdAt,value
2018-06-12T00:04:45.935Z,16.53
2018-06-12T00:09:52.398Z,16.51
2018-06-12T00:14:55.849Z,16.48
2018-06-12T00:19:59.016Z,16.56
2018-06-12T00:25:02.090Z,16.45
2018-06-12T00:30:05.280Z,16.41
2018-06-12T00:35:08.408Z,16.24
2018-06-12T00:40:11.531Z,16.28
2018-06-12T00:45:14.745Z,16.22
2018-06-12T00:50:17.848Z,16.19
2018-06-12T00:55:21.898Z,16.12
2018-06-12T01:00:25.102Z,15.87
2018-06-12T01:05:28.158Z,15.95
2018-06-12T01:10:31.909Z,15.95
2018-06-12T01:15:37.895Z,15.82
2018-06-12T01:20:40.946Z,15.66
2018-06-12T01:25:44.246Z,15.67
2018-06-12T01:30:47.491Z,15.52
2018-06-12T01:35:50.685Z,15.42
2018-06-12T01:40:53.820Z,15.17
2018-06-12T01:45:56.990Z,15.24
2018-06-12T01:51:00.081Z,15.16
2018-06-12T01:56:03.254Z,15.17
2018-06-12T02:01:06.412Z,15.08
2018-06-12T02:06:12.750Z,15.00
2018-06-12T02:16:35.535Z,14.99
2018-06-12T02:21:38.632Z,14.94
2018-06-12T02:26:41.757Z,14.95
2018-06-12T02:31:45.033Z,14.92
2018-06-12T02:36:48.338Z,14.82
2018-06-12T02:41:51.526Z,14.63
2018-06-12T02:46:54.637Z,14.81
2018-06-12T02:51:57.776Z,14.73
2018-06-12T02:57:00.868Z,14.77
2018-06-12T03:02:03.985Z,14.67
2018-06-12T03:07:07.068Z,14.66
2018-06-12T03:12:10.255Z,14.65
2018-06-12T03:17:13.503Z,14.66
2018-06-12T03:22:16.634Z,14.71
2018-06-12T03:27:20.304Z,14.72
2018-06-12T03:32:23.599Z,14.82
2018-06-12T03:37:26.909Z,14.75
2018-06-12T03:42:30.528Z,14.72
2018-06-12T03:47:35.076Z,14.69
2018-06-12T03:52:38.220Z,14.70
2018-06-12T03:57:43.543Z,14.80
2018-06-12T04:02:46.887Z,15.31
2018-06-12T04:07:50.148Z,15.39
2018-06-12T04:12:53.748Z,16.21
2018-06-12T04:17:56.962Z,16.68
2018-06-12T04:23:00.635Z,16.94
2018-06-12T04:28:03.874Z,18.47
2018-06-12T04:33:07.768Z,16.79
2018-06-12T04:38:10.906Z,16.41
2018-06-12T04:43:14.153Z,15.62
2018-06-12T04:48:17.333Z,15.98
2018-06-12T04:53:20.539Z,15.98
2018-06-12T04:58:26.634Z,15.79
2018-06-12T05:03:30.313Z,15.67
2018-06-12T05:08:33.704Z,15.50
2018-06-12T05:13:36.838Z,15.71
2018-06-12T05:18:39.975Z,15.85
2018-06-12T05:23:43.064Z,15.47
2018-06-12T05:28:46.186Z,15.64
2018-06-12T05:33:49.305Z,15.64
2018-06-12T05:38:52.498Z,16.35
2018-06-12T05:43:55.782Z,16.57
2018-06-12T05:48:58.927Z,16.60
2018-06-12T05:54:02.161Z,17.17
2018-06-12T05:59:05.385Z,17.32
2018-06-12T06:04:08.624Z,16.97
2018-06-12T06:09:12.066Z,16.95
2018-06-12T06:14:15.202Z,17.66
2018-06-12T06:19:18.329Z,20.27
2018-06-12T06:24:21.938Z,19.46
2018-06-12T06:29:25.060Z,19.34
2018-06-12T06:34:28.297Z,19.92
2018-06-12T06:39:31.553Z,22.06
2018-06-12T06:44:34.791Z,24.51
2018-06-12T06:49:37.947Z,23.96
2018-06-12T06:54:41.539Z,24.40
2018-06-12T06:59:44.765Z,22.36
2018-06-12T07:04:47.870Z,20.45
2018-06-12T07:09:50.987Z,18.42
2018-06-12T07:14:54.290Z,19.43
2018-06-12T07:19:57.509Z,19.31
2018-06-12T07:25:00.620Z,24.01
2018-06-12T07:30:04.165Z,21.13
2018-06-12T07:35:07.564Z,19.03
2018-06-12T07:40:10.654Z,20.37
2018-06-12T07:45:13.779Z,24.45
2018-06-12T07:50:16.881Z,21.89
2018-06-12T07:55:19.987Z,23.61
2018-06-12T08:00:23.133Z,22.84
2018-06-12T08:05:26.329Z,21.21
2018-06-12T08:10:29.502Z,23.55
2018-06-12T08:15:32.626Z,20.67
2018-06-12T08:20:35.818Z,20.53
2018-06-12T08:25:39.250Z,19.88
2018-06-12T08:30:42.449Z,20.15
2018-06-12T08:35:45.784Z,19.68
2018-06-12T08:40:48.926Z,19.50
2018-06-12T08:45:52.059Z,18.29
2018-06-12T08:50:55.474Z,18.28
2018-06-12T08:55:58.580Z,18.70
2018-06-12T09:01:02.025Z,18.84
2018-06-12T09:06:06.157Z,19.08
2018-06-12T09:11:09.625Z,19.27
2018-06-12T09:16:12.698Z,20.14
2018-06-12T09:21:15.819Z,23.75
2018-06-12T09:26:18.969Z,23.22
2018-06-12T09:31:22.060Z,21.77
2018-06-12T09:36:25.244Z,22.01
2018-06-12T09:41:28.360Z,23.15
2018-06-12T09:46:31.685Z,22.84
2018-06-12T09:51:34.804Z,22.60
2018-06-12T09:56:37.955Z,21.72
2018-06-12T10:01:41.047Z,21.91
2018-06-12T10:06:44.211Z,22.83
2018-06-12T10:11:47.304Z,25.73
2018-06-12T10:16:50.554Z,26.21
2018-06-12T10:21:53.738Z,26.16
2018-06-12T10:26:56.847Z,24.45
2018-06-12T10:31:59.984Z,26.15
2018-06-12T10:37:03.143Z,24.69
2018-06-12T10:42:06.265Z,24.44
2018-06-12T10:47:09.391Z,23.01
2018-06-12T10:52:12.466Z,23.59
2018-06-12T10:57:15.537Z,25.70
2018-06-12T11:02:18.660Z,23.79
2018-06-12T11:07:21.824Z,22.37
2018-06-12T11:12:25.065Z,23.59
2018-06-12T11:17:28.276Z,23.26
2018-06-12T11:22:31.674Z,22.89
2018-06-12T11:27:34.869Z,23.18
2018-06-12T11:32:38.828Z,22.61
2018-06-12T11:37:42.786Z,22.70
2018-06-12T11:42:45.867Z,23.23
2018-06-12T11:47:48.984Z,23.19
2018-06-12T11:52:52.112Z,21.54
2018-06-12T11:57:55.222Z,21.99
2018-06-12T12:02:58.388Z,22.10
2018-06-12T12:08:02.437Z,21.62
2018-06-12T12:13:08.542Z,23.07
2018-06-12T12:18:12.287Z,23.53
2018-06-12T12:23:15.425Z,24.35
2018-06-12T12:28:18.584Z,23.55
2018-06-12T12:33:21.817Z,22.66
2018-06-12T12:38:25.010Z,22.69
2018-06-12T12:43:28.152Z,23.14
2018-06-12T12:48:31.299Z,24.12
2018-06-12T12:53:34.505Z,25.01
2018-06-12T12:58:37.678Z,23.82
2018-06-12T13:03:40.843Z,24.53
2018-06-12T13:08:44.013Z,25.18
2018-06-12T13:13:47.207Z,25.14
2018-06-12T13:18:50.306Z,24.17
2018-06-12T13:23:53.462Z,22.78
2018-06-12T13:28:56.721Z,22.41
2018-06-12T13:33:59.817Z,23.19
2018-06-12T13:39:03.259Z,24.72
2018-06-12T13:44:06.436Z,23.65
2018-06-12T13:49:09.910Z,22.86
2018-06-12T13:54:13.085Z,22.60
2018-06-12T13:59:16.198Z,22.57
2018-06-12T14:04:19.321Z,22.85
2018-06-12T14:09:22.412Z,23.01
2018-06-12T14:14:26.035Z,23.56
2018-06-12T14:19:29.149Z,24.10
2018-06-12T14:24:33.218Z,25.63
2018-06-12T14:29:36.744Z,24.78
2018-06-12T14:34:39.937Z,23.89
2018-06-12T14:39:43.020Z,23.07
2018-06-12T14:44:48.715Z,24.66
2018-06-12T14:49:51.892Z,24.23
2018-06-12T14:54:55.063Z,24.56
2018-06-12T14:59:58.304Z,24.96
2018-06-12T15:05:01.903Z,24.58
2018-06-12T15:10:05.248Z,24.47
2018-06-12T15:15:08.497Z,24.04
2018-06-12T15:20:11.678Z,22.77
2018-06-12T15:25:14.886Z,22.29
2018-06-12T15:30:19.385Z,23.48
2018-06-12T15:35:22.562Z,22.41
2018-06-12T15:40:25.694Z,22.37
2018-06-12T15:45:28.839Z,22.15
2018-06-12T15:50:32.227Z,22.98
2018-06-12T15:55:36.095Z,23.49
2018-06-12T16:00:39.492Z,22.28
2018-06-12T16:05:42.983Z,23.60
2018-06-12T16:10:46.316Z,23.06
2018-06-12T16:15:49.602Z,22.13
2018-06-12T16:20:53.001Z,23.06
2018-06-12T16:25:56.571Z,23.24
2018-06-12T16:30:59.907Z,24.07
2018-06-12T16:36:03.179Z,24.48
2018-06-12T16:41:06.504Z,23.46
2018-06-12T16:46:09.804Z,23.62
2018-06-12T16:51:12.984Z,22.66
2018-06-12T16:56:16.092Z,22.85
2018-06-12T17:01:19.927Z,23.18
2018-06-12T17:06:24.028Z,23.11
2018-06-12T17:11:27.400Z,21.92
2018-06-12T17:16:31.485Z,22.55
2018-06-12T17:21:34.828Z,22.85
2018-06-12T17:26:40.536Z,22.70
2018-06-12T17:31:43.697Z,21.92
2018-06-12T17:36:46.911Z,21.59
2018-06-12T17:41:50.752Z,21.46
2018-06-12T17:46:54.503Z,21.30
2018-06-12T17:51:57.787Z,20.94
2018-06-12T17:57:01.675Z,20.77
2018-06-12T18:02:05.103Z,20.42
2018-06-12T18:07:12.065Z,20.16
2018-06-12T18:12:21.280Z,20.05
2018-06-12T18:17:26.045Z,19.87
2018-06-12T18:22:30.880Z,19.33
2018-06-12T18:27:34.133Z,19.10
2018-06-12T18:33:02.272Z,18.63
2018-06-12T18:38:06.288Z,18.71
2018-06-12T18:43:10.515Z,18.47
2018-06-12T18:48:25.617Z,18.14
2018-06-12T18:53:29.690Z,17.89
2018-06-12T18:58:33.837Z,17.75
2018-06-12T19:03:37.628Z,17.54
2018-06-12T19:08:41.683Z,17.58
2018-06-12T19:13:45.140Z,17.44
2018-06-12T19:18:49.153Z,17.37
2018-06-12T19:23:57.199Z,17.23
2018-06-12T19:29:00.313Z,17.14
2018-06-12T19:34:03.455Z,17.12
2018-06-12T19:39:10.808Z,16.94
2018-06-12T19:44:17.645Z,16.82
2018-06-12T19:49:22.233Z,16.79
2018-06-12T19:54:25.869Z,16.66
2018-06-12T19:59:29.122Z,16.48
2018-06-12T20:04:32.270Z,16.43
2018-06-12T20:09:35.374Z,16.28
2018-06-12T20:14:38.951Z,16.16
2018-06-12T20:19:44.138Z,16.17
2018-06-12T20:24:49.150Z,16.34
2018-06-12T20:29:54.206Z,16.37
2018-06-12T20:34:58.249Z,16.37
2018-06-12T20:40:01.925Z,16.57
2018-06-12T20:45:05.215Z,16.55
2018-06-12T20:50:08.524Z,16.64
2018-06-12T20:55:13.525Z,16.60
2018-06-12T21:00:17.236Z,16.69
2018-06-12T21:05:21.253Z,16.81
2018-06-12T21:10:25.893Z,16.85
2018-06-12T21:15:30.045Z,16.90
2018-06-12T21:20:34.288Z,16.82
2018-06-12T21:25:37.371Z,16.92
2018-06-12T21:30:40.768Z,16.82
2018-06-12T21:35:44.028Z,16.89
2018-06-12T21:40:47.652Z,16.94
2018-06-12T21:45:50.885Z,16.90
2018-06-12T21:50:54.006Z,16.84
2018-06-12T21:55:57.384Z,16.90
2018-06-12T22:01:00.467Z,16.69
2018-06-12T22:06:03.760Z,16.81
2018-06-12T22:11:06.883Z,16.67
2018-06-12T22:16:10.047Z,16.63
2018-06-12T22:21:13.272Z,16.62
2018-06-12T22:26:17.365Z,16.59
2018-06-12T22:31:20.464Z,16.53
2018-06-12T22:36:23.672Z,16.58
2018-06-12T22:41:26.803Z,16.64
2018-06-12T22:46:29.900Z,16.72
2018-06-12T22:51:32.994Z,16.65
2018-06-12T22:56:36.119Z,16.58
2018-06-12T23:01:39.273Z,16.64
2018-06-12T23:06:42.382Z,16.71
2018-06-12T23:11:45.596Z,16.75
2018-06-12T23:16:48.887Z,16.62
2018-06-12T23:21:58.548Z,16.39
2018-06-12T23:27:03.858Z,16.30
2018-06-12T23:32:06.942Z,16.17
2018-06-12T23:37:10.106Z,16.26
2018-06-12T23:42:14.077Z,16.11
2018-06-12T23:47:19.108Z,16.01
2018-06-12T23:52:22.250Z,15.94
2018-06-12T23:57:25.406Z,15.92
